Time;durP1;ratioP1;P1;durP2;ratioP2;P2;SDS_P1;SDS_P2;PMS_P1;PMS_P2;Temp;Humidity;BMP_temperature;BMP_pressure;BME280_temperature;BME280_humidity;BME280_pressure;Samples;Min_cycle;Max_cycle;Signal;HPM_P1;HPM_P2
2023/06/03 11:18:23;;;;;;;25.60;12.30;;;19.90;99.90;;;;;;5721251;23;20030;31
2023/06/03 11:36:47;;;;;;;22.60;10.52;;;19.90;99.90;;;;;;5191931;23;20047;-92
2023/06/03 11:39:17;;;;;;;19.17;9.57;;;19.80;99.90;;;;;;4915531;29;20056;-92
2023/06/03 11:42:08;;;;;;;19.00;9.07;;;19.80;99.90;;;;;;4923791;29;20048;-92
2023/06/03 11:44:36;;;;;;;17.35;9.05;;;19.70;99.90;;;;;;4879386;29;20165;-92
2023/06/03 11:47:04;;;;;;;14.30;9.40;;;19.70;99.90;;;;;;4872325;29;20029;-92
2023/06/03 11:49:36;;;;;;;31.85;12.10;;;19.80;99.90;;;;;;4902621;29;20041;-92
2023/06/03 11:52:03;;;;;;;30.55;12.23;;;20.00;99.90;;;;;;4874703;29;20032;-93
2023/06/03 11:54:30;;;;;;;28.40;12.88;;;20.20;99.90;;;;;;4871434;29;20044;-94
2023/06/03 11:57:00;;;;;;;30.92;12.57;;;20.40;99.90;;;;;;4878127;29;20047;-93
2023/06/03 11:59:40;;;;;;;31.05;12.05;;;20.40;99.90;;;;;;4870190;29;20131;-93
2023/06/03 12:02:46;;;;;;;27.13;12.60;;;20.40;99.90;;;;;;5031322;23;20087;-94
2023/06/03 12:05:20;;;;;;;23.45;11.48;;;20.10;99.90;;;;;;4917749;29;20035;-92
2023/06/03 12:08:03;;;;;;;23.63;11.30;;;20.00;99.90;;;;;;4914342;29;20545;-93
2023/06/03 12:10:40;;;;;;;19.02;10.10;;;20.10;99.90;;;;;;4920767;29;20048;-93
2023/06/03 12:13:10;;;;;;;22.88;10.90;;;20.10;99.90;;;;;;4923085;29;20028;-94
2023/06/03 12:15:47;;;;;;;19.75;10.40;;;19.90;99.90;;;;;;4909326;29;20127;-94
2023/06/03 12:18:14;;;;;;;21.30;10.93;;;19.80;99.90;;;;;;4922875;29;20482;-93
2023/06/03 12:20:40;;;;;;;22.75;12.15;;;19.90;99.90;;;;;;4888915;29;20028;-92
2023/06/03 12:23:07;;;;;;;18.55;10.63;;;20.00;99.90;;;;;;4904533;29;20122;-93
2023/06/03 12:25:35;;;;;;;16.65;9.52;;;19.90;99.90;;;;;;4904361;29;20478;-92
2023/06/03 12:28:28;;;;;;;18.65;9.38;;;19.80;99.90;;;;;;4919926;29;20036;-93
2023/06/03 12:30:55;;;;;;;16.85;9.30;;;19.80;99.90;;;;;;4921337;29;20032;-93
2023/06/03 12:33:22;;;;;;;16.67;8.63;;;19.70;99.90;;;;;;4904160;29;20043;-93
2023/06/03 12:35:56;;;;;;;16.98;9.60;;;19.70;99.90;;;;;;4920101;29;20114;-94
2023/06/03 12:38:26;;;;;;;15.55;9.38;;;19.60;99.90;;;;;;4889692;29;20561;-92
2023/06/03 12:41:08;;;;;;;16.42;9.35;;;19.60;99.90;;;;;;4888465;29;20438;-92
2023/06/03 12:43:35;;;;;;;14.20;8.45;;;19.70;99.90;;;;;;4887542;29;20145;-93
2023/06/03 12:46:19;;;;;;;20.52;10.38;;;19.80;99.90;;;;;;4890893;29;20114;-93
2023/06/03 12:48:45;;;;;;;19.73;9.38;;;19.90;99.90;;;;;;4900614;29;20032;-93
2023/06/03 12:51:28;;;;;;;23.02;10.77;;;20.00;99.90;;;;;;4900732;29;20031;-94
2023/06/03 12:53:59;;;;;;;19.88;10.65;;;20.30;99.90;;;;;;4870079;29;20040;-93
2023/06/03 12:56:28;;;;;;;17.58;9.82;;;20.30;99.90;;;;;;4901245;29;20036;-93
2023/06/03 13:01:55;;;;;;;19.48;9.63;;;20.40;99.90;;;;;;4907702;29;20111;-94
2023/06/03 13:04:23;;;;;;;21.17;11.68;;;20.40;99.90;;;;;;4886931;29;20036;-93
2023/06/03 13:06:49;;;;;;;14.60;9.38;;;20.40;99.90;;;;;;4869566;29;20021;-91
2023/06/03 13:09:16;;;;;;;20.02;10.57;;;20.50;99.90;;;;;;4870527;29;20067;-92
2023/06/03 14:24:50;;;;;;;12.68;8.73;;;22.10;99.90;;;;;;5063825;23;19923;-93
2023/06/03 14:27:18;;;;;;;10.98;8.55;;;22.10;99.90;;;;;;4921001;29;20035;-93
2023/06/03 14:35:38;;;;;;;12.02;9.52;;;22.20;99.90;;;;;;5288858;23;20071;-93
2023/06/03 14:53:05;;;;;;;15.93;11.18;;;22.30;99.90;;;;;;5326457;23;20505;-93
2023/06/03 14:55:32;;;;;;;14.07;9.63;;;22.50;99.90;;;;;;4904595;29;20043;-93
2023/06/03 14:57:58;;;;;;;20.65;10.30;;;22.60;99.90;;;;;;4904794;29;20039;-91
2023/06/03 15:00:25;;;;;;;12.65;8.98;;;22.70;99.90;;;;;;4904440;29;20024;-91
2023/06/03 15:02:51;;;;;;;13.02;8.65;;;22.90;99.90;;;;;;4901535;29;20059;-93
2023/06/03 15:05:17;;;;;;;10.30;8.77;;;23.00;99.90;;;;;;4901118;29;20390;-93
2023/06/03 15:07:45;;;;;;;12.23;9.38;;;23.10;99.90;;;;;;4901644;29;20123;-93
2023/06/03 15:10:12;;;;;;;9.90;8.82;;;23.20;99.90;;;;;;4901284;29;20040;-93
2023/06/03 15:12:38;;;;;;;14.95;9.40;;;23.20;99.90;;;;;;4904295;29;20024;-92
2023/06/03 15:15:05;;;;;;;11.30;9.13;;;23.20;99.90;;;;;;4920117;29;20043;-94
2023/06/03 15:17:32;;;;;;;14.00;10.75;;;23.20;99.90;;;;;;4904778;29;20406;-94
2023/06/03 15:19:58;;;;;;;14.43;12.32;;;23.30;99.90;;;;;;4920048;29;20028;-92
2023/06/03 15:22:31;;;;;;;17.58;12.38;;;23.30;99.90;;;;;;4906737;23;20085;-94
2023/06/03 15:24:58;;;;;;;19.40;13.25;;;23.30;99.90;;;;;;4883420;29;20106;-93
2023/06/03 15:27:24;;;;;;;16.83;11.68;;;23.40;99.90;;;;;;4898815;29;20033;-92
2023/06/03 15:29:51;;;;;;;15.15;10.98;;;23.30;99.90;;;;;;4898128;29;20024;-93
2023/06/03 15:32:20;;;;;;;18.52;11.00;;;23.20;99.90;;;;;;4897785;29;20119;-92
2023/06/03 15:34:47;;;;;;;13.45;10.30;;;23.20;99.90;;;;;;4882397;29;20021;-92
2023/06/03 15:37:13;;;;;;;14.68;10.07;;;23.20;99.90;;;;;;4897810;29;20037;-93
2023/06/03 15:39:40;;;;;;;10.45;9.35;;;23.20;99.90;;;;;;4882513;29;20036;-94
2023/06/03 15:42:06;;;;;;;14.38;10.52;;;23.20;99.90;;;;;;4882353;29;20028;-92
2023/06/03 15:44:33;;;;;;;12.35;9.63;;;23.30;99.90;;;;;;4882534;29;20033;-92
2023/06/03 15:46:59;;;;;;;13.85;9.98;;;23.30;99.90;;;;;;4882566;29;20032;-94
2023/06/03 15:49:26;;;;;;;14.00;10.65;;;23.30;99.90;;;;;;4883015;29;20085;-92
2023/06/03 15:51:56;;;;;;;13.60;10.02;;;23.30;99.90;;;;;;4897759;29;20052;-92
2023/06/03 15:54:22;;;;;;;12.20;9.93;;;23.30;99.90;;;;;;4882064;29;20039;-92
2023/06/03 15:56:52;;;;;;;12.70;10.52;;;23.30;99.90;;;;;;4884637;29;20037;-93
2023/06/03 16:01:48;;;;;;;15.23;11.18;;;23.50;99.90;;;;;;4935613;29;20044;-92
2023/06/03 16:04:26;;;;;;;11.23;10.02;;;23.40;99.90;;;;;;4904278;29;20032;-94
2023/06/03 16:07:00;;;;;;;11.10;9.80;;;23.50;99.90;;;;;;4980611;23;20071;-95
2023/06/03 16:09:52;;;;;;;13.40;9.35;;;23.40;99.90;;;;;;4910199;29;20089;-94
2023/06/03 16:12:22;;;;;;;11.00;9.88;;;23.40;99.90;;;;;;4925795;29;20040;-93
2023/06/03 16:14:48;;;;;;;11.35;9.85;;;23.30;99.90;;;;;;4909779;29;20031;-93
2023/06/03 16:17:40;;;;;;;12.40;10.57;;;23.40;99.90;;;;;;4931127;29;20098;-94
2023/06/03 16:20:07;;;;;;;12.05;10.50;;;23.40;99.90;;;;;;4909089;29;20055;-93
2023/06/03 16:22:34;;;;;;;12.48;10.93;;;23.70;99.90;;;;;;4908564;29;20032;-93
2023/06/03 16:25:03;;;;;;;12.18;10.88;;;23.90;99.90;;;;;;4906052;29;20474;-95
2023/06/03 16:27:29;;;;;;;15.07;13.57;;;24.00;99.90;;;;;;4924890;29;20099;-92
2023/06/03 16:29:55;;;;;;;12.85;10.85;;;24.00;99.90;;;;;;4906772;29;20036;-93
2023/06/03 16:32:23;;;;;;;12.73;11.63;;;24.10;99.90;;;;;;4907385;29;20024;-94
2023/06/03 16:34:49;;;;;;;13.20;11.98;;;24.20;99.90;;;;;;4907466;29;20039;-93
2023/06/03 16:37:15;;;;;;;13.10;12.10;;;24.20;99.90;;;;;;4906840;29;20055;-93
2023/06/03 17:34:48;;;;;;;9.65;7.72;;;21.90;99.90;;;;;;823993;23;20301;-92
2023/06/03 19:14:57;;;;;;;13.38;7.18;;;19.40;99.90;;;;;;1130763;23;20377;-91
2023/06/03 19:17:24;;;;;;;;;;;19.30;99.90;;;;;;4913369;29;20051;-93
2023/06/03 19:20:08;;;;;;;12.55;7.40;;;19.30;99.90;;;;;;4885318;29;19918;-93
2023/06/03 19:22:35;;;;;;;9.77;6.47;;;19.30;99.90;;;;;;4885383;29;20035;-93
2023/06/03 19:25:04;;;;;;;9.10;6.68;;;19.30;99.90;;;;;;4884291;29;20039;-93
2023/06/03 19:33:08;;;;;;;14.73;7.13;;;19.00;99.90;;;;;;5095264;23;20071;-93
2023/06/03 19:35:34;;;;;;;10.13;6.70;;;18.90;99.90;;;;;;4921105;29;20076;-93
2023/06/03 19:38:01;;;;;;;13.55;6.78;;;18.80;99.90;;;;;;4922530;29;20043;-92
2023/06/03 19:40:44;;;;;;;12.43;7.10;;;18.80;99.90;;;;;;4905758;29;20061;-92
2023/06/03 19:43:55;;;;;;;10.80;6.77;;;18.70;99.90;;;;;;4909969;29;20028;-93
2023/06/03 19:50:05;;;;;;;11.57;6.85;;;18.80;99.90;;;;;;4918373;29;20038;-93
2023/06/03 20:55:37;;;;;;;12.27;6.45;;;18.30;99.90;;;;;;5615598;23;20044;-93
2023/06/03 20:58:03;;;;;;;15.00;7.03;;;18.30;99.90;;;;;;4909354;29;20036;-93
2023/06/03 21:00:29;;;;;;;18.90;7.45;;;18.30;99.90;;;;;;4911208;29;20115;-92
2023/06/03 21:03:01;;;;;;;12.95;7.15;;;18.30;99.90;;;;;;4904438;29;20038;-93
2023/06/03 21:05:28;;;;;;;16.75;7.70;;;18.30;99.90;;;;;;4873368;29;20024;-94
2023/06/03 21:07:54;;;;;;;10.02;7.40;;;18.30;99.90;;;;;;4872310;29;20029;-93
2023/06/03 21:10:38;;;;;;;9.57;6.70;;;18.30;99.90;;;;;;4872030;29;20068;-93
2023/06/03 21:13:12;;;;;;;9.98;6.60;;;18.30;99.90;;;;;;4888190;29;20049;-93
2023/06/03 21:15:38;;;;;;;14.97;8.07;;;18.40;99.90;;;;;;4887982;29;20088;-93
2023/06/03 21:18:05;;;;;;;15.85;6.80;;;18.40;99.90;;;;;;4890380;29;20846;-94
2023/06/03 21:21:12;;;;;;;17.48;7.97;;;18.40;99.90;;;;;;4900311;29;20076;-93
2023/06/03 23:18:35;;;;;;;19.52;8.65;;;17.40;99.90;;;;;;5322068;23;20058;-93
2023/06/03 23:21:08;;;;;;;16.13;8.52;;;17.50;99.90;;;;;;4936872;29;20024;-93
2023/06/03 23:23:38;;;;;;;16.88;8.82;;;17.50;99.90;;;;;;4898653;29;20696;-94
2023/06/03 23:26:09;;;;;;;19.10;8.65;;;17.60;99.90;;;;;;4885827;29;20219;-94
2023/06/03 23:28:36;;;;;;;19.75;8.32;;;17.60;99.90;;;;;;4879911;29;20059;-95
2023/06/03 23:31:17;;;;;;;12.05;8.18;;;17.50;99.90;;;;;;4896060;29;20121;-94
2023/06/03 23:34:20;;;;;;;14.23;7.65;;;17.50;99.90;;;;;;4965992;23;20056;-94
2023/06/03 23:40:11;;;;;;;17.38;9.25;;;17.50;99.90;;;;;;4911007;29;20058;-94
2023/06/03 23:42:42;;;;;;;19.50;9.93;;;17.60;99.90;;;;;;4892950;29;20034;-94
2023/06/03 23:45:24;;;;;;;21.23;9.57;;;17.60;99.90;;;;;;4884667;29;20037;-95
2023/06/03 23:48:07;;;;;;;14.05;7.90;;;17.70;99.90;;;;;;4900118;29;20057;-95
2023/06/03 23:50:56;;;;;;;15.47;8.47;;;17.60;99.90;;;;;;4888533;29;20063;-93
2023/06/03 23:53:23;;;;;;;12.77;8.27;;;17.60;99.90;;;;;;4891375;29;20119;-94
2023/06/03 23:55:51;;;;;;;15.88;8.65;;;17.50;99.90;;;;;;4894702;29;20029;-94
2023/06/03 23:58:24;;;;;;;15.43;8.45;;;17.50;99.90;;;;;;4893131;29;20041;-95
